createdAt,value
2022-11-10T00:00:54.006Z,10.20
2022-11-10T00:02:44.483Z,10.17
2022-11-10T00:04:34.522Z,10.18
2022-11-10T00:06:25.018Z,10.18
2022-11-10T00:08:15.490Z,10.18
2022-11-10T00:10:07.016Z,10.17
2022-11-10T00:11:57.003Z,10.16
2022-11-10T00:14:07.051Z,10.16
2022-11-10T00:16:20.768Z,10.10
2022-11-10T00:18:10.997Z,10.07
2022-11-10T00:20:01.559Z,10.06
2022-11-10T00:21:52.677Z,10.04
2022-11-10T00:23:43.089Z,10.02
2022-11-10T00:25:33.399Z,10.02
2022-11-10T00:27:23.401Z,9.98
2022-11-10T00:29:13.952Z,9.94
2022-11-10T00:31:08.284Z,9.93
2022-11-10T00:32:58.270Z,9.90
2022-11-10T00:34:48.560Z,9.89
2022-11-10T00:36:38.940Z,9.82
2022-11-10T00:38:29.196Z,9.79
2022-11-10T00:40:19.476Z,9.75
2022-11-10T00:42:10.323Z,9.71
2022-11-10T00:44:01.168Z,9.70
2022-11-10T00:45:51.870Z,9.68
2022-11-10T00:47:42.104Z,9.69
2022-11-10T00:49:32.394Z,9.73
2022-11-10T00:51:25.760Z,9.76
2022-11-10T00:53:15.702Z,9.75
2022-11-10T00:55:06.316Z,9.74
2022-11-10T00:56:56.357Z,9.75
2022-11-10T00:58:46.828Z,9.79
2022-11-10T01:00:37.484Z,9.80
2022-11-10T01:02:28.448Z,9.82
2022-11-10T01:04:18.876Z,9.79
2022-11-10T01:06:13.902Z,9.77
2022-11-10T01:08:04.931Z,9.74
2022-11-10T01:09:54.897Z,9.73
2022-11-10T01:11:45.238Z,9.69
2022-11-10T01:13:36.923Z,9.64
2022-11-10T01:15:28.127Z,9.63
2022-11-10T01:17:18.354Z,9.59
2022-11-10T01:19:08.924Z,9.58
2022-11-10T01:20:59.135Z,9.52
2022-11-10T01:22:49.463Z,9.48
2022-11-10T01:24:39.638Z,9.43
2022-11-10T01:26:29.842Z,9.43
2022-11-10T01:28:20.057Z,9.35
2022-11-10T01:30:10.879Z,9.29
2022-11-10T01:32:00.888Z,9.19
2022-11-10T01:33:50.994Z,9.11
2022-11-10T01:35:41.229Z,9.06
2022-11-10T01:37:31.132Z,9.00
2022-11-10T01:39:21.488Z,8.98
2022-11-10T01:41:14.143Z,8.94
2022-11-10T01:43:04.129Z,8.88
2022-11-10T01:45:22.285Z,8.86
2022-11-10T01:47:12.279Z,8.81
2022-11-10T01:49:04.167Z,8.73
2022-11-10T01:50:55.769Z,8.71
2022-11-10T01:52:50.556Z,8.77
2022-11-10T01:54:46.148Z,8.80
2022-11-10T01:56:40.832Z,8.82
2022-11-10T01:58:34.115Z,8.86
2022-11-10T02:00:24.599Z,8.88
2022-11-10T02:02:27.387Z,8.89
2022-11-10T02:04:20.433Z,8.94
2022-11-10T02:06:11.974Z,8.90
2022-11-10T02:08:03.595Z,8.82
2022-11-10T02:09:54.011Z,8.77
2022-11-10T02:11:44.534Z,8.76
2022-11-10T02:13:34.516Z,8.75
2022-11-10T02:15:25.385Z,8.70
2022-11-10T02:17:16.212Z,8.68
2022-11-10T02:19:20.059Z,8.65
2022-11-10T02:21:10.396Z,8.64
2022-11-10T02:23:11.646Z,8.65
2022-11-10T02:25:02.618Z,8.63
2022-11-10T02:26:56.738Z,8.69
2022-11-10T02:28:47.139Z,8.68
2022-11-10T02:30:37.269Z,8.58
2022-11-10T02:32:28.628Z,8.50
2022-11-10T02:34:18.725Z,8.36
2022-11-10T02:36:09.436Z,8.31
2022-11-10T02:37:59.482Z,8.27
2022-11-10T02:39:49.567Z,8.21
2022-11-10T02:41:39.846Z,8.17
2022-11-10T02:43:30.015Z,8.12
2022-11-10T02:45:19.873Z,8.07
2022-11-10T02:47:12.879Z,8.05
2022-11-10T02:49:02.845Z,8.01
2022-11-10T02:50:52.986Z,8.02
2022-11-10T02:52:43.382Z,8.00
2022-11-10T02:54:33.735Z,8.00
2022-11-10T02:56:23.858Z,8.03
2022-11-10T02:58:14.319Z,8.10
2022-11-10T03:00:06.334Z,8.14
2022-11-10T03:01:56.347Z,8.10
2022-11-10T03:03:46.667Z,8.10
2022-11-10T03:05:37.007Z,8.06
2022-11-10T03:07:27.125Z,8.04
2022-11-10T03:09:17.252Z,8.00
2022-11-10T03:11:07.305Z,7.97
2022-11-10T03:12:59.625Z,7.91
2022-11-10T03:14:49.468Z,7.84
2022-11-10T03:16:39.305Z,7.80
2022-11-10T03:18:29.296Z,7.77
2022-11-10T03:20:19.622Z,7.70
2022-11-10T03:22:09.996Z,7.67
2022-11-10T03:24:00.467Z,7.69
2022-11-10T03:25:50.764Z,7.72
2022-11-10T03:27:41.112Z,7.69
2022-11-10T03:29:31.422Z,7.70
2022-11-10T03:31:21.608Z,7.69
2022-11-10T03:33:11.756Z,7.66
2022-11-10T03:35:02.181Z,7.67
2022-11-10T03:36:52.402Z,7.69
2022-11-10T03:38:42.602Z,7.64
2022-11-10T03:40:45.526Z,7.59
2022-11-10T03:42:46.467Z,7.61
2022-11-10T03:44:36.646Z,7.67
2022-11-10T03:46:26.514Z,7.69
2022-11-10T03:48:16.613Z,7.70
2022-11-10T03:50:07.337Z,7.60
2022-11-10T03:51:57.648Z,7.56
2022-11-10T03:53:47.620Z,7.54
2022-11-10T03:55:37.729Z,7.60
2022-11-10T03:57:27.638Z,7.51
2022-11-10T03:59:17.851Z,7.44
2022-11-10T04:01:08.265Z,7.47
2022-11-10T04:02:58.375Z,7.50
2022-11-10T04:05:07.188Z,7.53
2022-11-10T04:07:16.034Z,7.54
2022-11-10T04:09:07.289Z,7.59
2022-11-10T04:10:57.463Z,7.57
2022-11-10T04:13:06.296Z,7.59
2022-11-10T04:15:14.966Z,7.59
2022-11-10T04:17:05.339Z,7.57
2022-11-10T04:18:55.613Z,7.56
2022-11-10T04:20:45.847Z,7.65
2022-11-10T04:22:54.660Z,7.71
2022-11-10T04:24:44.970Z,7.78
2022-11-10T04:26:38.767Z,7.84
2022-11-10T04:28:28.632Z,7.89
2022-11-10T04:30:18.549Z,7.91
2022-11-10T04:32:08.646Z,7.91
2022-11-10T04:33:59.370Z,7.87
2022-11-10T04:35:49.323Z,7.82
2022-11-10T04:37:39.328Z,7.77
2022-11-10T04:39:29.400Z,7.73
2022-11-10T04:41:19.422Z,7.71
2022-11-10T04:43:09.637Z,7.63
2022-11-10T04:44:59.847Z,7.63
2022-11-10T04:46:49.946Z,7.64
2022-11-10T04:48:40.217Z,7.64
2022-11-10T04:50:30.494Z,7.64
2022-11-10T04:52:20.812Z,7.62
2022-11-10T04:54:11.328Z,7.52
2022-11-10T04:56:01.599Z,7.54
2022-11-10T04:57:51.885Z,7.47
2022-11-10T04:59:41.798Z,7.52
2022-11-10T05:01:31.987Z,7.49
2022-11-10T05:03:22.064Z,7.50
2022-11-10T05:05:12.774Z,7.43
2022-11-10T05:07:03.073Z,7.38
2022-11-10T05:08:53.024Z,7.34
2022-11-10T05:10:43.604Z,7.32
2022-11-10T05:12:33.458Z,7.24
2022-11-10T05:14:23.586Z,7.21
2022-11-10T05:16:14.009Z,7.13
2022-11-10T05:18:04.178Z,7.07
2022-11-10T05:19:54.517Z,6.98
2022-11-10T05:21:44.481Z,6.87
2022-11-10T05:23:41.844Z,6.78
2022-11-10T05:25:31.805Z,6.75
2022-11-10T05:27:22.240Z,6.69
2022-11-10T05:29:12.163Z,6.63
2022-11-10T05:31:02.181Z,6.63
2022-11-10T05:32:52.365Z,6.66
2022-11-10T05:34:42.652Z,6.72
2022-11-10T05:36:32.729Z,6.74
2022-11-10T05:38:23.989Z,6.71
2022-11-10T05:40:14.121Z,6.73
2022-11-10T05:42:04.529Z,6.66
2022-11-10T05:43:54.629Z,6.65
2022-11-10T05:45:44.903Z,6.65
2022-11-10T05:47:38.932Z,6.60
2022-11-10T05:49:28.814Z,6.62
2022-11-10T05:51:18.994Z,6.60
2022-11-10T05:53:09.164Z,6.62
2022-11-10T05:54:59.450Z,6.63
2022-11-10T05:56:49.642Z,6.59
2022-11-10T05:58:39.726Z,6.57
2022-11-10T06:00:31.585Z,6.67
2022-11-10T06:02:21.422Z,6.65
2022-11-10T06:04:11.813Z,6.60
2022-11-10T06:06:01.695Z,6.57
2022-11-10T06:07:52.143Z,6.55
2022-11-10T06:09:42.024Z,6.51
2022-11-10T06:11:32.358Z,6.57
2022-11-10T06:13:22.916Z,6.54
2022-11-10T06:15:15.363Z,6.57
2022-11-10T06:17:05.366Z,6.57
2022-11-10T06:18:55.671Z,6.56
2022-11-10T06:20:47.030Z,6.57
2022-11-10T06:22:37.130Z,6.55
2022-11-10T06:24:27.434Z,6.51
2022-11-10T06:26:17.534Z,6.51
2022-11-10T06:28:09.326Z,6.55
2022-11-10T06:29:59.319Z,6.55
2022-11-10T06:31:49.598Z,6.53
2022-11-10T06:33:42.677Z,6.53
2022-11-10T06:35:32.875Z,6.52
2022-11-10T06:37:23.059Z,6.53
2022-11-10T06:39:13.584Z,6.52
2022-11-10T06:41:03.515Z,6.56
2022-11-10T06:42:53.583Z,6.53
2022-11-10T06:44:43.930Z,6.38
2022-11-10T06:46:37.043Z,6.33
2022-11-10T06:48:31.107Z,6.39
2022-11-10T06:50:21.342Z,6.44
2022-11-10T06:52:11.241Z,6.45
2022-11-10T06:54:01.433Z,6.44
2022-11-10T06:55:51.705Z,6.51
2022-11-10T06:57:41.802Z,6.50
2022-11-10T06:59:31.898Z,6.53
2022-11-10T07:01:26.448Z,6.63
2022-11-10T07:03:16.874Z,6.63
2022-11-10T07:05:07.808Z,6.66
2022-11-10T07:06:58.253Z,6.75
2022-11-10T07:08:48.968Z,6.76
2022-11-10T07:10:39.300Z,6.76
2022-11-10T07:12:29.565Z,6.81
2022-11-10T07:14:19.620Z,6.84
2022-11-10T07:16:10.548Z,6.87
2022-11-10T07:18:02.510Z,6.95
2022-11-10T07:19:52.565Z,7.02
2022-11-10T07:21:42.651Z,7.04
2022-11-10T07:23:34.888Z,7.01
2022-11-10T07:25:25.503Z,7.14
2022-11-10T07:27:15.799Z,7.21
2022-11-10T07:29:05.872Z,7.22
2022-11-10T07:30:56.307Z,7.14
2022-11-10T07:32:46.516Z,7.10
2022-11-10T07:34:36.502Z,7.10
2022-11-10T07:36:28.907Z,7.05
2022-11-10T07:38:19.206Z,7.05
2022-11-10T07:40:10.062Z,7.12
2022-11-10T07:42:00.226Z,7.13
2022-11-10T07:43:50.209Z,7.13
2022-11-10T07:45:40.647Z,7.09
2022-11-10T07:47:30.744Z,7.03
2022-11-10T07:49:21.010Z,7.11
2022-11-10T07:51:11.078Z,7.09
2022-11-10T07:53:26.106Z,7.11
2022-11-10T07:55:16.256Z,7.21
2022-11-10T07:57:06.353Z,7.22
2022-11-10T07:58:56.552Z,7.40
2022-11-10T08:00:47.431Z,7.44
2022-11-10T08:02:37.715Z,7.59
2022-11-10T08:04:27.748Z,7.61
2022-11-10T08:06:18.167Z,7.55
2022-11-10T08:08:08.712Z,7.52
2022-11-10T08:09:58.692Z,7.52
2022-11-10T08:11:48.877Z,7.53
2022-11-10T08:13:39.903Z,7.53
2022-11-10T08:15:31.433Z,7.51
2022-11-10T08:17:21.300Z,7.57
2022-11-10T08:19:11.424Z,7.68
2022-11-10T08:21:02.341Z,7.81
2022-11-10T08:23:00.802Z,7.91
2022-11-10T08:24:50.880Z,7.97
2022-11-10T08:26:41.974Z,8.02
2022-11-10T08:28:31.888Z,7.98
2022-11-10T08:30:22.072Z,8.04
2022-11-10T08:32:12.448Z,8.09
2022-11-10T08:34:02.353Z,8.13
2022-11-10T08:35:52.734Z,8.03
2022-11-10T08:37:42.723Z,8.02
2022-11-10T08:39:39.917Z,8.12
2022-11-10T08:41:29.923Z,8.20
2022-11-10T08:43:20.299Z,8.18
2022-11-10T08:45:11.041Z,8.20
2022-11-10T08:47:02.892Z,8.36
2022-11-10T08:48:52.824Z,8.56
2022-11-10T08:50:43.728Z,8.59
2022-11-10T08:52:33.585Z,8.75
2022-11-10T08:54:23.770Z,8.98
2022-11-10T08:56:13.831Z,8.96
2022-11-10T08:58:05.440Z,9.00
2022-11-10T08:59:55.469Z,9.00
2022-11-10T09:01:45.987Z,8.97
2022-11-10T09:03:36.431Z,8.98
2022-11-10T09:05:26.642Z,9.11
2022-11-10T09:07:17.050Z,9.12
2022-11-10T09:09:07.341Z,9.39
2022-11-10T09:10:57.579Z,9.31
2022-11-10T09:12:47.965Z,9.33
2022-11-10T09:14:38.076Z,9.29
2022-11-10T09:16:28.080Z,9.27
2022-11-10T09:18:18.287Z,9.56
2022-11-10T09:20:09.796Z,9.78
2022-11-10T09:21:59.797Z,9.86
2022-11-10T09:23:50.001Z,9.93
2022-11-10T09:25:41.064Z,10.07
2022-11-10T09:27:31.310Z,10.29
2022-11-10T09:29:22.874Z,10.70
2022-11-10T09:31:12.796Z,10.86
2022-11-10T09:33:03.019Z,11.19
2022-11-10T09:34:53.321Z,11.39
2022-11-10T09:36:43.659Z,11.60
2022-11-10T09:38:35.112Z,11.51
2022-11-10T09:40:40.936Z,11.11
2022-11-10T09:42:39.895Z,10.95
2022-11-10T09:44:36.093Z,10.35
2022-11-10T09:46:40.697Z,10.63
2022-11-10T09:48:41.848Z,9.79
2022-11-10T09:50:41.247Z,10.07
2022-11-10T09:52:35.120Z,10.90
2022-11-10T09:54:31.090Z,11.59
2022-11-10T09:56:30.324Z,11.84
2022-11-10T09:58:25.067Z,11.67
2022-11-10T10:00:16.896Z,11.92
2022-11-10T10:02:30.701Z,12.10
2022-11-10T10:05:12.138Z,11.88
2022-11-10T10:07:14.913Z,11.45
2022-11-10T10:09:28.448Z,10.72
2022-11-10T10:11:37.466Z,10.62
2022-11-10T10:14:03.989Z,10.18
2022-11-10T10:16:22.558Z,10.08
2022-11-10T10:18:15.749Z,10.05
2022-11-10T10:20:08.818Z,10.00
2022-11-10T10:22:05.128Z,9.94
2022-11-10T10:24:19.804Z,9.84
2022-11-10T10:26:15.577Z,10.05
2022-11-10T10:28:16.429Z,10.13
2022-11-10T10:30:19.187Z,10.33
2022-11-10T10:32:14.880Z,10.23
2022-11-10T10:34:12.754Z,10.03
2022-11-10T10:36:09.792Z,10.01
2022-11-10T10:38:01.770Z,10.13
2022-11-10T10:39:55.291Z,10.15
2022-11-10T10:41:46.513Z,10.24
2022-11-10T10:43:36.757Z,10.26
2022-11-10T10:45:29.811Z,10.27
2022-11-10T10:47:36.407Z,10.34
2022-11-10T10:49:30.423Z,10.44
2022-11-10T10:51:29.812Z,10.47
2022-11-10T10:53:26.166Z,10.54
2022-11-10T10:55:16.454Z,10.67
2022-11-10T10:57:22.154Z,17.15
2022-11-10T10:59:20.931Z,22.06
2022-11-10T11:01:14.190Z,24.43
2022-11-10T11:03:06.251Z,25.05
2022-11-10T11:05:13.157Z,24.61
2022-11-10T11:07:06.818Z,24.63
2022-11-10T11:09:18.071Z,25.52
2022-11-10T11:11:10.256Z,23.01
2022-11-10T11:13:25.658Z,19.34
2022-11-10T11:15:28.277Z,18.34
2022-11-10T11:17:19.932Z,17.35
2022-11-10T11:19:09.775Z,16.24
2022-11-10T11:21:15.128Z,15.68
2022-11-10T11:23:15.569Z,15.52
2022-11-10T11:25:33.594Z,15.08
2022-11-10T11:27:44.314Z,14.80
2022-11-10T11:29:58.198Z,14.25
2022-11-10T11:32:10.004Z,14.05
2022-11-10T11:34:53.522Z,13.85
2022-11-10T11:37:19.037Z,13.38
2022-11-10T11:39:35.172Z,13.35
2022-11-10T11:41:27.927Z,13.14
2022-11-10T11:43:48.409Z,13.00
2022-11-10T11:46:19.833Z,13.01
2022-11-10T11:48:28.252Z,12.91
2022-11-10T11:50:30.241Z,12.85
2022-11-10T11:52:48.565Z,12.77
2022-11-10T11:54:55.415Z,12.61
2022-11-10T11:56:49.561Z,12.71
2022-11-10T11:58:54.750Z,12.54
2022-11-10T12:01:23.329Z,12.65
2022-11-10T12:03:47.218Z,12.65
2022-11-10T12:06:04.269Z,12.57
2022-11-10T12:08:01.869Z,12.75
2022-11-10T12:09:58.014Z,12.84
2022-11-10T12:12:10.376Z,12.73
2022-11-10T12:14:31.474Z,12.75
2022-11-10T12:16:28.556Z,12.76
2022-11-10T12:18:37.650Z,12.76
2022-11-10T12:21:03.813Z,12.69
2022-11-10T12:23:03.811Z,12.72
2022-11-10T12:25:18.227Z,12.47
2022-11-10T12:27:11.853Z,12.36
2022-11-10T12:29:04.770Z,12.40
2022-11-10T12:31:01.910Z,12.34
2022-11-10T12:33:03.583Z,12.50
2022-11-10T12:35:11.105Z,12.40
2022-11-10T12:37:05.089Z,12.27
2022-11-10T12:39:04.998Z,12.13
2022-11-10T12:41:04.039Z,12.10
2022-11-10T12:42:59.967Z,12.03
2022-11-10T12:47:14.337Z,11.92
2022-11-10T12:49:32.386Z,11.82
2022-11-10T12:51:45.995Z,11.77
2022-11-10T12:53:39.474Z,11.88
2022-11-10T12:55:41.571Z,11.95
2022-11-10T12:57:33.135Z,11.94
2022-11-10T12:59:36.272Z,11.82
2022-11-10T13:01:26.590Z,11.74
2022-11-10T13:03:37.861Z,11.70
2022-11-10T13:05:36.640Z,11.87
2022-11-10T13:07:26.899Z,11.73
2022-11-10T13:09:23.779Z,11.63
2022-11-10T13:11:13.949Z,12.13
2022-11-10T13:13:03.791Z,11.94
2022-11-10T13:14:53.902Z,11.93
2022-11-10T13:16:49.467Z,11.85
2022-11-10T13:18:42.674Z,11.80
2022-11-10T13:20:38.636Z,11.65
2022-11-10T13:22:40.961Z,11.64
2022-11-10T13:24:36.516Z,11.62
2022-11-10T13:26:45.061Z,11.60
2022-11-10T13:28:47.181Z,11.64
2022-11-10T13:30:44.961Z,11.61
2022-11-10T13:32:35.810Z,11.64
2022-11-10T13:34:36.986Z,11.68
2022-11-10T13:36:46.434Z,11.72
2022-11-10T13:38:41.710Z,11.65
2022-11-10T13:40:35.509Z,11.67
2022-11-10T13:42:25.724Z,11.85
2022-11-10T13:44:25.096Z,11.82
2022-11-10T13:46:15.254Z,11.72
2022-11-10T13:48:11.297Z,11.59
2022-11-10T13:50:04.207Z,11.59
2022-11-10T13:52:08.563Z,11.68
2022-11-10T13:54:34.395Z,11.59
2022-11-10T13:56:35.524Z,11.65
2022-11-10T13:58:28.902Z,11.62
2022-11-10T14:00:19.415Z,11.43
2022-11-10T14:02:34.121Z,11.33
2022-11-10T14:04:40.348Z,11.27
2022-11-10T14:06:45.025Z,11.34
2022-11-10T14:08:40.864Z,11.36
2022-11-10T14:10:51.364Z,11.27
2022-11-10T14:12:45.687Z,11.18
2022-11-10T14:15:22.570Z,11.12
2022-11-10T14:17:40.795Z,11.14
2022-11-10T14:19:42.907Z,11.12
2022-11-10T14:21:58.129Z,11.11
2022-11-10T14:23:53.854Z,11.18
2022-11-10T14:25:45.537Z,11.11
2022-11-10T14:27:38.387Z,11.10
2022-11-10T14:29:33.081Z,11.07
2022-11-10T14:31:25.281Z,11.07
2022-11-10T14:33:15.780Z,11.02
2022-11-10T14:35:06.899Z,11.11
2022-11-10T14:37:01.330Z,11.14
2022-11-10T14:38:52.801Z,11.11
2022-11-10T14:40:43.234Z,11.11
2022-11-10T14:42:34.217Z,11.00
2022-11-10T14:44:27.889Z,10.95
2022-11-10T14:46:24.008Z,10.98
2022-11-10T14:48:20.677Z,10.96
2022-11-10T14:50:14.549Z,10.88
2022-11-10T14:52:04.822Z,10.83
2022-11-10T14:53:57.295Z,10.77
2022-11-10T14:55:54.434Z,10.77
2022-11-10T14:57:58.384Z,10.72
2022-11-10T14:59:48.722Z,10.68
2022-11-10T15:01:42.184Z,10.65
2022-11-10T15:03:40.946Z,10.62
2022-11-10T15:05:31.795Z,10.57
2022-11-10T15:07:22.041Z,10.57
2022-11-10T15:09:14.606Z,10.51
2022-11-10T15:11:05.376Z,10.47
2022-11-10T15:13:07.210Z,10.41
2022-11-10T15:15:00.183Z,10.37
2022-11-10T15:17:07.443Z,10.35
2022-11-10T15:19:23.070Z,10.36
2022-11-10T15:21:13.441Z,10.34
2022-11-10T15:23:29.166Z,10.26
2022-11-10T15:25:24.319Z,10.12
2022-11-10T15:27:25.110Z,10.08
2022-11-10T15:29:21.607Z,10.08
2022-11-10T15:31:33.447Z,10.04
2022-11-10T15:33:31.203Z,10.00
2022-11-10T15:35:24.483Z,9.94
2022-11-10T15:37:30.486Z,9.88
2022-11-10T15:39:25.039Z,9.82
2022-11-10T15:41:27.509Z,9.78
2022-11-10T15:43:17.880Z,9.72
2022-11-10T15:45:08.539Z,9.64
2022-11-10T15:46:59.344Z,9.66
2022-11-10T15:48:51.540Z,9.56
2022-11-10T15:50:48.070Z,9.49
2022-11-10T15:52:38.561Z,9.50
2022-11-10T15:54:33.524Z,9.45
2022-11-10T15:56:24.783Z,9.38
2022-11-10T15:58:24.161Z,9.37
2022-11-10T16:00:15.053Z,9.35
2022-11-10T16:02:16.412Z,9.33
2022-11-10T16:04:09.689Z,9.26
2022-11-10T16:05:59.770Z,9.23
2022-11-10T16:07:50.065Z,9.13
2022-11-10T16:09:40.457Z,9.15
2022-11-10T16:11:31.598Z,9.09
2022-11-10T16:13:32.280Z,9.00
2022-11-10T16:15:22.513Z,8.95
2022-11-10T16:17:13.225Z,8.97
2022-11-10T16:19:03.628Z,8.90
2022-11-10T16:20:54.054Z,8.85
2022-11-10T16:22:44.354Z,8.79
2022-11-10T16:24:34.423Z,8.86
2022-11-10T16:26:26.143Z,8.82
2022-11-10T16:28:26.059Z,8.72
2022-11-10T16:30:16.746Z,8.68
2022-11-10T16:32:06.945Z,8.66
2022-11-10T16:33:57.069Z,8.69
2022-11-10T16:35:51.169Z,8.61
2022-11-10T16:37:44.152Z,8.58
2022-11-10T16:39:34.486Z,8.54
2022-11-10T16:41:24.853Z,8.52
2022-11-10T16:43:18.786Z,8.42
2022-11-10T16:45:16.347Z,8.38
2022-11-10T16:47:17.230Z,8.33
2022-11-10T16:49:23.521Z,8.31
2022-11-10T16:51:14.321Z,8.34
2022-11-10T16:53:06.455Z,8.32
2022-11-10T16:54:56.351Z,8.26
2022-11-10T16:56:46.693Z,8.21
2022-11-10T16:58:36.964Z,8.15
2022-11-10T17:00:27.487Z,8.13
2022-11-10T17:02:30.976Z,8.16
2022-11-10T17:04:21.112Z,8.13
2022-11-10T17:06:13.606Z,8.07
2022-11-10T17:08:04.647Z,8.00
2022-11-10T17:09:57.020Z,7.99
2022-11-10T17:11:47.450Z,7.95
2022-11-10T17:13:37.395Z,7.93
2022-11-10T17:15:27.890Z,7.87
2022-11-10T17:17:20.307Z,7.87
2022-11-10T17:19:19.000Z,7.88
2022-11-10T17:21:09.424Z,7.89
2022-11-10T17:23:01.508Z,7.90
2022-11-10T17:24:54.868Z,7.83
2022-11-10T17:26:45.539Z,7.77
2022-11-10T17:28:35.433Z,7.72
2022-11-10T17:30:25.961Z,7.73
2022-11-10T17:32:16.242Z,7.70
2022-11-10T17:34:06.368Z,7.66
2022-11-10T17:35:57.657Z,7.65
2022-11-10T17:37:55.081Z,7.65
2022-11-10T17:39:45.423Z,7.63
2022-11-10T17:41:35.704Z,7.59
2022-11-10T17:43:26.505Z,7.58
2022-11-10T17:45:20.194Z,7.57
2022-11-10T17:47:10.438Z,7.52
2022-11-10T17:49:03.101Z,7.52
2022-11-10T17:50:53.613Z,7.50
2022-11-10T17:52:44.260Z,7.44
2022-11-10T17:54:34.613Z,7.40
2022-11-10T17:56:24.949Z,7.39
2022-11-10T17:58:16.087Z,7.41
2022-11-10T18:00:06.723Z,7.34
2022-11-10T18:01:58.270Z,7.30
2022-11-10T18:03:50.230Z,7.29
2022-11-10T18:05:40.189Z,7.30
2022-11-10T18:07:30.580Z,7.33
2022-11-10T18:09:20.609Z,7.33
2022-11-10T18:11:13.141Z,7.24
2022-11-10T18:13:03.386Z,7.16
2022-11-10T18:14:53.716Z,7.10
2022-11-10T18:16:44.057Z,7.01
2022-11-10T18:18:34.243Z,6.96
2022-11-10T18:20:24.650Z,6.91
2022-11-10T18:22:15.077Z,6.88
2022-11-10T18:24:05.510Z,6.84
2022-11-10T18:25:56.301Z,6.83
2022-11-10T18:27:46.437Z,6.79
2022-11-10T18:29:36.787Z,6.73
2022-11-10T18:31:27.123Z,6.65
2022-11-10T18:33:17.444Z,6.65
2022-11-10T18:35:08.181Z,6.74
2022-11-10T18:36:58.633Z,6.66
2022-11-10T18:38:48.995Z,6.57
2022-11-10T18:40:39.692Z,6.50
2022-11-10T18:42:29.838Z,6.48
2022-11-10T18:44:20.204Z,6.45
2022-11-10T18:46:10.695Z,6.40
2022-11-10T18:48:03.143Z,6.41
2022-11-10T18:49:53.357Z,6.37
2022-11-10T18:51:43.930Z,6.40
2022-11-10T18:53:38.105Z,6.39
2022-11-10T18:55:28.824Z,6.37
2022-11-10T18:57:19.297Z,6.36
2022-11-10T18:59:09.540Z,6.35
2022-11-10T19:01:08.880Z,6.28
2022-11-10T19:02:59.158Z,6.21
2022-11-10T19:04:53.376Z,6.19
2022-11-10T19:06:44.351Z,6.17
2022-11-10T19:08:34.486Z,6.14
2022-11-10T19:10:24.921Z,6.11
2022-11-10T19:12:15.603Z,6.10
2022-11-10T19:14:05.521Z,6.13
2022-11-10T19:16:00.045Z,6.24
2022-11-10T19:17:49.980Z,6.18
